Weather History for KFBL - September, 2012

Change the Weather History Date:

Saturday, September 15, 2012

  Actual Average Record
Temperature  
Mean Temperature 66 °F -  
Max Temperature 82 °F 69 °F 93 °F (1948)
Min Temperature 51 °F 47 °F 28 °F (2011)
Cooling Degree Days 2    
Growing Degree Days 16 (Base 50)    
Moisture  
Dew Point 46 °F    
Average Humidity 53    
Maximum Humidity 82    
Minimum Humidity 28    
Precipitation  
Precipitation 0.00 in - - ()
Sea Level Pressure  
Sea Level Pressure 30.13 in    
Wind  
Wind Speed 7 mph (South)    
Max Wind Speed 18 mph    
Max Gust Speed 26 mph    
Visibility 10 miles    
Events      
Averages and records for this station are not official NWS values.
T = Trace of Precipitation, MM = Missing Value Source: NWS Daily Summary

Daily Weather History Graph

Daily Weather History Graph

Search for Another Location

Airport or City:

Trip Planner

Search our weather history database for the weather conditions in past years. The results will help you decide how hot, cold, wet, or windy it might be!

Date:

Astronomy

Sep. 15, 2012 Rise Set
Actual Time 6:52 AM CDT 7:22 PM CDT
Civil Twilight 6:23 AM CDT 7:51 PM CDT
Nautical Twilight 5:49 AM CDT 8:26 PM CDT
Astronomical Twilight 5:13 AM CDT 9:01 PM CDT
Moon 6:25 AM CDT (9/15) 6:51 PM CDT (9/15)
Length of Visible Light 13h 28m
Length of Day
12h 29m
Waning Crescent, 0% of the Moon is Illuminated
Sep 15
Waning Crescent
Sep 15
New
Sep 22
First Quarter
Sep 29
Full
Oct 8
Last Quarter

Hourly Weather History & Observations

Time (CDT) Temp. Dew Point Humidity Pressure Visibility Wind Dir Wind Speed Gust Speed Precip Events Conditions
12:14 AM 51.8 °F 42.8 °F 71% 30.25 in 10.0 mi Calm Calm - N/A   Clear
12:34 AM 51.8 °F 42.8 °F 71% 30.25 in 10.0 mi SE 3.5 mph - N/A   Clear
12:54 AM 53.6 °F 44.6 °F 72% 30.25 in 10.0 mi Calm Calm - N/A   Clear
1:14 AM 51.8 °F 42.8 °F 71% 30.24 in 10.0 mi ESE 3.5 mph - N/A   Clear
1:34 AM 51.8 °F 44.6 °F 76% 30.24 in 10.0 mi SSE 3.5 mph - N/A   Clear
1:54 AM 53.6 °F 44.6 °F 72% 30.23 in 10.0 mi SSE 5.8 mph - N/A   Clear
2:14 AM 53.6 °F 46.4 °F 77% 30.23 in 10.0 mi SSE 6.9 mph - N/A   Clear
2:34 AM 53.6 °F 46.4 °F 77% 30.22 in 10.0 mi SSE 4.6 mph - N/A   Clear
2:54 AM 53.6 °F 46.4 °F 77% 30.22 in 10.0 mi Calm Calm - N/A   Clear
3:14 AM 53.6 °F 46.4 °F 77% 30.22 in 10.0 mi SSE 4.6 mph - N/A   Clear
3:34 AM 53.6 °F 46.4 °F 77% 30.21 in 10.0 mi South 4.6 mph - N/A   Clear
3:54 AM 53.6 °F 46.4 °F 77% 30.21 in 10.0 mi South 4.6 mph - N/A   Clear
4:14 AM 53.6 °F 46.4 °F 77% 30.21 in 10.0 mi South 4.6 mph - N/A   Clear
4:34 AM 53.6 °F 46.4 °F 77% 30.21 in 10.0 mi South 4.6 mph - N/A   Clear
4:54 AM 51.8 °F 46.4 °F 82% 30.21 in 10.0 mi South 5.8 mph - N/A   Clear
5:14 AM 51.8 °F 46.4 °F 82% 30.21 in 10.0 mi South 4.6 mph - N/A   Clear
5:34 AM 51.8 °F 46.4 °F 82% 30.21 in 10.0 mi South 4.6 mph - N/A   Clear
5:54 AM 51.8 °F 46.4 °F 82% 30.20 in 10.0 mi South 4.6 mph - N/A   Clear
6:14 AM 51.8 °F 46.4 °F 82% 30.20 in 10.0 mi SSE 5.8 mph - N/A   Clear
6:34 AM 51.8 °F 46.4 °F 82% 30.20 in 10.0 mi South 5.8 mph - N/A   Clear
6:54 AM 51.8 °F 46.4 °F 82% 30.21 in 10.0 mi South 6.9 mph - N/A   Clear
7:14 AM 51.8 °F 46.4 °F 82% 30.21 in 10.0 mi South 6.9 mph - N/A   Clear
7:34 AM 53.6 °F 46.4 °F 77% 30.21 in 10.0 mi South 6.9 mph - N/A   Clear
7:55 AM 55.4 °F 48.2 °F 77% 30.21 in 10.0 mi South 6.9 mph - N/A   Clear
8:14 AM 57.2 °F 48.2 °F 72% 30.21 in 10.0 mi South 6.9 mph - N/A   Clear
8:34 AM 57.2 °F 48.2 °F 72% 30.20 in 10.0 mi South 8.1 mph - N/A   Clear
8:54 AM 60.8 °F 48.2 °F 63% 30.20 in 10.0 mi South 6.9 mph - N/A   Clear
9:14 AM 62.6 °F 48.2 °F 59% 30.20 in 10.0 mi SSW 9.2 mph - N/A   Clear
9:34 AM 64.4 °F 46.4 °F 52% 30.19 in 10.0 mi SSW 11.5 mph 17.3 mph N/A   Clear
9:54 AM 66.2 °F 46.4 °F 49% 30.19 in 10.0 mi South 10.4 mph - N/A   Clear
10:14 AM 66.2 °F 46.4 °F 49% 30.18 in 10.0 mi SSW 8.1 mph 18.4 mph N/A   Clear
10:34 AM 69.8 °F 44.6 °F 40% 30.17 in 10.0 mi SSW 12.7 mph 18.4 mph N/A   Clear
10:54 AM 69.8 °F 44.6 °F 40% 30.17 in 10.0 mi SSW 11.5 mph 18.4 mph N/A   Clear
11:14 AM 71.6 °F 44.6 °F 38% 30.16 in 10.0 mi SSW 13.8 mph 20.7 mph N/A   Clear
11:34 AM 73.4 °F 44.6 °F 36% 30.15 in 10.0 mi SSW 13.8 mph 20.7 mph N/A   Clear
11:54 AM 73.4 °F 44.6 °F 36% 30.15 in 10.0 mi SSW 13.8 mph 21.9 mph N/A   Clear
12:14 PM 75.2 °F 44.6 °F 34% 30.14 in 10.0 mi SW 17.3 mph 24.2 mph N/A   Clear
12:35 PM 77.0 °F 44.6 °F 32% 30.13 in 10.0 mi SW 15.0 mph 26.5 mph N/A   Clear
12:54 PM 78.8 °F 44.6 °F 30% 30.12 in 10.0 mi SSW 12.7 mph 24.2 mph N/A   Clear
1:14 PM 78.8 °F 44.6 °F 30% 30.11 in 10.0 mi SW 17.3 mph 23.0 mph N/A   Clear
1:35 PM 80.6 °F 44.6 °F 28% 30.10 in 10.0 mi South 15.0 mph 20.7 mph N/A   Clear
1:54 PM 80.6 °F 46.4 °F 30% 30.10 in 10.0 mi SSW 11.5 mph 19.6 mph N/A   Clear
2:14 PM 80.6 °F 46.4 °F 30% 30.09 in 10.0 mi South 10.4 mph 20.7 mph N/A   Clear
2:35 PM 80.6 °F 46.4 °F 30% 30.08 in 10.0 mi SSW 13.8 mph 25.3 mph N/A   Clear
2:54 PM 82.4 °F 46.4 °F 28% 30.08 in 10.0 mi SSW 18.4 mph 23.0 mph N/A   Clear
3:14 PM 80.6 °F 46.4 °F 30% 30.07 in 10.0 mi SSW 11.5 mph 20.7 mph N/A   Clear
3:35 PM 80.6 °F 46.4 °F 30% 30.07 in 10.0 mi SSW 12.7 mph 24.2 mph N/A   Clear
3:54 PM 80.6 °F 46.4 °F 30% 30.06 in 10.0 mi South 13.8 mph 21.9 mph N/A   Clear
4:14 PM 80.6 °F 46.4 °F 30% 30.06 in 10.0 mi SSW 16.1 mph 25.3 mph N/A   Clear
4:35 PM 80.6 °F 46.4 °F 30% 30.06 in 10.0 mi South 15.0 mph 21.9 mph N/A   Clear
4:54 PM 80.6 °F 46.4 °F 30% 30.05 in 10.0 mi SSW 15.0 mph 20.7 mph N/A   Clear
5:14 PM 80.6 °F 46.4 °F 30% 30.04 in 10.0 mi SSW 11.5 mph 18.4 mph N/A   Clear
5:35 PM 80.6 °F 44.6 °F 28% 30.04 in 10.0 mi SSW 11.5 mph 23.0 mph N/A   Clear
5:54 PM 78.8 °F 44.6 °F 30% 30.04 in 10.0 mi SSW 12.7 mph 17.3 mph N/A   Clear
6:14 PM 77.0 °F 44.6 °F 32% 30.03 in 10.0 mi South 12.7 mph 19.6 mph N/A   Clear
6:35 PM 77.0 °F 44.6 °F 32% 30.03 in 10.0 mi SSW 8.1 mph - N/A   Clear
6:54 PM 75.2 °F 44.6 °F 34% 30.03 in 10.0 mi South 8.1 mph - N/A   Clear
7:14 PM 73.4 °F 46.4 °F 38% 30.03 in 10.0 mi South 6.9 mph - N/A   Clear
7:35 PM 71.6 °F 44.6 °F 38% 30.03 in 10.0 mi South 4.6 mph - N/A   Clear
7:54 PM 69.8 °F 44.6 °F 40% 30.03 in 10.0 mi South 5.8 mph - N/A   Clear
8:15 PM 68.0 °F 44.6 °F 43% 30.03 in 10.0 mi South 5.8 mph - N/A   Clear
8:34 PM 66.2 °F 44.6 °F 46% 30.03 in 10.0 mi South 6.9 mph - N/A   Clear
8:55 PM 66.2 °F 44.6 °F 46% 30.03 in 10.0 mi South 9.2 mph - N/A   Clear
9:14 PM 66.2 °F 46.4 °F 49% 30.03 in 10.0 mi South 6.9 mph - N/A   Clear
9:34 PM 64.4 °F 46.4 °F 52% 30.03 in 10.0 mi South 6.9 mph - N/A   Clear
9:54 PM 64.4 °F 46.4 °F 52% 30.03 in 10.0 mi South 6.9 mph - N/A   Clear
10:14 PM 64.4 °F 46.4 °F 52% 30.03 in 10.0 mi South 6.9 mph - N/A   Clear
10:34 PM 64.4 °F 48.2 °F 56% 30.03 in 10.0 mi South 8.1 mph - N/A   Clear
10:54 PM 64.4 °F 48.2 °F 56% 30.02 in 10.0 mi South 8.1 mph - N/A   Clear
11:14 PM 64.4 °F 48.2 °F 56% 30.02 in 10.0 mi South 5.8 mph - N/A   Clear
11:34 PM 64.4 °F 48.2 °F 56% 30.02 in 10.0 mi South 6.9 mph - N/A   Clear
11:54 PM 62.6 °F 48.2 °F 59% 30.01 in 10.0 mi South 8.1 mph - N/A   Clear